Time;durP1;ratioP1;P1;durP2;ratioP2;P2;SDS_P1;SDS_P2;PMS_P1;PMS_P2;Temp;Humidity;BMP_temperature;BMP_pressure;BME280_temperature;BME280_humidity;BME280_pressure;Samples;Min_cycle;Max_cycle;Signal;HPM_P1;HPM_P2
2024/01/22 00:01:56;;;;;;;;;;;;;;;-144.99;100.00;67352.69;5092807;28;19920;-81
2024/01/22 00:04:22;;;;;;;;;;;;;;;-144.99;100.00;67352.69;5094213;28;19920;-82
2024/01/22 00:06:47;;;;;;;;;;;;;;;-144.99;100.00;67352.69;5089861;28;20259;-81
2024/01/22 00:09:12;;;;;;;;;;;;;;;-144.99;100.00;67352.69;5090956;28;19912;-81
2024/01/22 00:11:37;;;;;;;;;;;;;;;-144.99;100.00;67352.69;5091043;28;19912;-81
2024/01/22 00:14:03;;;;;;;;;;;;;;;-144.99;100.00;67352.69;5096011;28;19999;-82
2024/01/22 00:16:28;;;;;;;;;;;;;;;-144.99;100.00;67352.69;5080670;28;20022;-81
2024/01/22 00:18:53;;;;;;;;;;;;;;;-144.99;100.00;67352.69;5093941;28;19959;-81
2024/01/22 00:21:19;;;;;;;;;;;;;;;-144.99;100.00;67352.69;5093517;28;19920;-82
2024/01/22 00:23:45;;;;;;;;;;;;;;;-144.99;100.00;67352.69;5088504;28;19912;-82
2024/01/22 00:26:12;;;;;;;;;;;;;;;-144.99;100.00;67352.69;5082317;28;19974;-81
2024/01/22 00:28:38;;;;;;;;;;;;;;;-144.99;100.00;67352.69;5088260;28;19912;-82
2024/01/22 00:31:03;;;;;;;;;;;;;;;-144.99;100.00;67352.69;5085599;28;19977;-82
2024/01/22 00:33:28;;;;;;;;;;;;;;;-144.99;100.00;67352.69;5091520;28;19916;-82
2024/01/22 00:35:53;;;;;;;;;;;;;;;-144.99;100.00;67352.69;5089526;28;19936;-81
2024/01/22 00:38:19;;;;;;;;;;;;;;;-144.99;100.00;67352.69;5080764;28;20317;-81
2024/01/22 00:40:44;;;;;;;;;;;;;;;-144.99;100.00;67352.69;5081352;28;19913;-81
2024/01/22 00:43:09;;;;;;;;;;;;;;;-144.99;100.00;67352.69;5090807;28;19916;-81
2024/01/22 00:45:37;;;;;;;;;;;;;;;-144.99;100.00;67352.69;5089943;28;19919;-81
2024/01/22 00:48:02;;;;;;;;;;;;;;;-144.99;100.00;67352.69;5078878;28;19987;-81
2024/01/22 00:50:28;;;;;;;;;;;;;;;-144.99;100.00;67352.69;5088705;28;19940;-81
2024/01/22 00:52:53;;;;;;;;;;;;;;;-144.99;100.00;67352.69;5087305;28;19957;-81
2024/01/22 00:55:18;;;;;;;;;;;;;;;-144.99;100.00;67352.69;5080394;28;19945;-81
2024/01/22 00:57:44;;;;;;;;;;;;;;;-144.99;100.00;67352.69;5089544;28;19919;-81
2024/01/22 01:00:09;;;;;;;;;;;;;;;-144.99;100.00;67352.69;5100156;28;19912;-81
2024/01/22 01:02:35;;;;;;;;;;;;;;;-144.99;100.00;67352.69;5092578;28;19921;-81
2024/01/22 01:05:00;;;;;;;;;;;;;;;-144.99;100.00;67352.69;5099018;28;19940;-81
2024/01/22 01:07:25;;;;;;;;;;;;;;;-144.99;100.00;67352.69;5082585;28;19981;-81
2024/01/22 01:09:51;;;;;;;;;;;;;;;-144.99;100.00;67352.69;5078585;28;19919;-81
2024/01/22 01:12:16;;;;;;;;;;;;;;;-144.99;100.00;67352.69;5087340;28;19923;-81
2024/01/22 01:14:41;;;;;;;;;;;;;;;-144.99;100.00;67352.69;5087136;28;20449;-81
2024/01/22 01:17:06;;;;;;;;;;;;;;;-144.99;100.00;67352.69;5093051;28;20471;-81
2024/01/22 01:19:32;;;;;;;;;;;;;;;-144.99;100.00;67352.69;5090178;28;20426;-81
2024/01/22 01:21:57;;;;;;;;;;;;;;;-144.99;100.00;67352.69;5088391;28;19916;-82
2024/01/22 01:24:22;;;;;;;;;;;;;;;-144.99;100.00;67352.69;5094345;28;20497;-81
2024/01/22 01:26:48;;;;;;;;;;;;;;;-144.99;100.00;67352.69;5099010;28;20381;-81
2024/01/22 01:29:13;;;;;;;;;;;;;;;-144.99;100.00;67352.69;5083862;28;20392;-81
2024/01/22 01:31:38;;;;;;;;;;;;;;;-144.99;100.00;67352.69;5087829;28;19912;-81
2024/01/22 01:34:04;;;;;;;;;;;;;;;-144.99;100.00;67352.69;5085934;28;19934;-81
2024/01/22 01:36:29;;;;;;;;;;;;;;;-144.99;100.00;67352.69;5077969;28;19912;-81
2024/01/22 01:38:54;;;;;;;;;;;;;;;-144.99;100.00;67352.69;5077622;28;20297;-81
2024/01/22 01:41:19;;;;;;;;;;;;;;;-144.99;100.00;67352.69;5078950;28;19916;-81
2024/01/22 01:43:44;;;;;;;;;;;;;;;-144.99;100.00;67352.69;5087998;28;19962;-81
2024/01/22 01:46:10;;;;;;;;;;;;;;;-144.99;100.00;67352.69;5090760;28;19927;-81
2024/01/22 01:48:36;;;;;;;;;;;;;;;-144.99;100.00;67352.69;5095739;28;19911;-81
2024/01/22 01:51:02;;;;;;;;;;;;;;;-144.99;100.00;67352.69;5085484;28;19913;-81
2024/01/22 01:53:27;;;;;;;;;;;;;;;-144.99;100.00;67352.69;5077212;28;20334;-81
2024/01/22 01:55:53;;;;;;;;;;;;;;;-144.99;100.00;67352.69;5069649;28;19916;-81
2024/01/22 01:58:20;;;;;;;;;;;;;;;-144.99;100.00;67352.69;5092596;28;19916;-82
2024/01/22 02:00:47;;;;;;;;;;;;;;;-144.99;100.00;67352.69;5094598;28;19920;-81
2024/01/22 02:03:13;;;;;;;;;;;;;;;-144.99;100.00;67352.69;5083003;28;19947;-82
2024/01/22 02:05:38;;;;;;;;;;;;;;;-144.99;100.00;67352.69;5088712;28;20373;-82
2024/01/22 02:08:03;;;;;;;;;;;;;;;-144.99;100.00;67352.69;5080712;28;19912;-81
2024/01/22 02:10:28;;;;;;;;;;;;;;;-144.99;100.00;67352.69;5089871;28;19912;-81
2024/01/22 02:12:54;;;;;;;;;;;;;;;-144.99;100.00;67352.69;5085155;28;20293;-81
2024/01/22 02:15:19;;;;;;;;;;;;;;;-144.99;100.00;67352.69;5086311;28;19962;-81
2024/01/22 02:17:44;;;;;;;;;;;;;;;-144.99;100.00;67352.69;5076628;28;20027;-81
2024/01/22 02:20:10;;;;;;;;;;;;;;;-144.99;100.00;67352.69;5085127;28;19919;-81
2024/01/22 02:22:35;;;;;;;;;;;;;;;-144.99;100.00;67352.69;5076943;28;19923;-81
2024/01/22 02:25:00;;;;;;;;;;;;;;;-144.99;100.00;67352.69;5085294;28;19912;-81
2024/01/22 02:27:25;;;;;;;;;;;;;;;-144.99;100.00;67352.69;5086278;28;20406;-81
2024/01/22 02:29:51;;;;;;;;;;;;;;;-144.99;100.00;67352.69;5085096;28;20002;-81
2024/01/22 02:32:16;;;;;;;;;;;;;;;-144.99;100.00;67352.69;5085328;28;20022;-81
2024/01/22 02:34:41;;;;;;;;;;;;;;;-144.99;100.00;67352.69;5074480;28;20117;-81
2024/01/22 02:37:06;;;;;;;;;;;;;;;-144.99;100.00;67352.69;5087243;28;20392;-81
2024/01/22 02:39:32;;;;;;;;;;;;;;;-144.99;100.00;67352.69;5076428;28;20347;-81
2024/01/22 02:41:57;;;;;;;;;;;;;;;-144.99;100.00;67352.69;5084697;28;20011;-81
2024/01/22 02:44:22;;;;;;;;;;;;;;;-144.99;100.00;67352.69;5076689;28;20019;-80
2024/01/22 02:46:48;;;;;;;;;;;;;;;-144.99;100.00;67352.69;5083075;28;19920;-81
2024/01/22 02:49:13;;;;;;;;;;;;;;;-144.99;100.00;67352.69;5085684;28;19913;-81
2024/01/22 02:51:41;;;;;;;;;;;;;;;-144.99;100.00;67352.69;5084364;28;20392;-81
2024/01/22 02:54:06;;;;;;;;;;;;;;;-144.99;100.00;67352.69;5081466;28;20003;-82
2024/01/22 02:56:32;;;;;;;;;;;;;;;-144.99;100.00;67352.69;5074042;28;20400;-82
2024/01/22 02:58:57;;;;;;;;;;;;;;;-144.99;100.00;67352.69;5089912;28;19919;-82
2024/01/22 03:01:22;;;;;;;;;;;;;;;-144.99;100.00;67352.69;5080845;28;20067;-82
2024/01/22 03:03:48;;;;;;;;;;;;;;;-144.99;100.00;67352.69;5074179;28;19917;-82
2024/01/22 03:06:13;;;;;;;;;;;;;;;-144.99;100.00;67352.69;5082147;28;19936;-82
2024/01/22 03:08:38;;;;;;;;;;;;;;;-144.99;100.00;67352.69;5084867;28;20358;-82
2024/01/22 03:11:04;;;;;;;;;;;;;;;-144.99;100.00;67352.69;5093166;28;19916;-82
2024/01/22 03:13:29;;;;;;;;;;;;;;;-144.99;100.00;67352.69;5077138;28;19913;-82
2024/01/22 03:15:54;;;;;;;;;;;;;;;-144.99;100.00;67352.69;5090079;28;20003;-82
2024/01/22 03:18:20;;;;;;;;;;;;;;;-144.99;100.00;67352.69;5084250;28;19919;-82
2024/01/22 03:20:45;;;;;;;;;;;;;;;-144.99;100.00;67352.69;5087567;28;19912;-82
2024/01/22 03:23:10;;;;;;;;;;;;;;;-144.99;100.00;67352.69;5083922;28;19924;-82
2024/01/22 03:25:35;;;;;;;;;;;;;;;-144.99;100.00;67352.69;5090898;28;19913;-83
2024/01/22 03:28:00;;;;;;;;;;;;;;;-144.99;100.00;67352.69;5089561;28;19912;-82
2024/01/22 03:30:26;;;;;;;;;;;;;;;-144.99;100.00;67352.69;5089941;28;19912;-82
2024/01/22 03:32:51;;;;;;;;;;;;;;;-144.99;100.00;67352.69;5086522;28;20293;-82
2024/01/22 03:35:16;;;;;;;;;;;;;;;-144.99;100.00;67352.69;5085870;28;20415;-82
2024/01/22 03:37:42;;;;;;;;;;;;;;;-144.99;100.00;67352.69;5098040;28;19922;-82
2024/01/22 03:40:07;;;;;;;;;;;;;;;-144.99;100.00;67352.69;5085456;28;19923;-81
2024/01/22 03:42:33;;;;;;;;;;;;;;;-144.99;100.00;67352.69;5086225;28;20270;-82
2024/01/22 03:44:58;;;;;;;;;;;;;;;-144.99;100.00;67352.69;5079037;28;19958;-82
2024/01/22 03:47:23;;;;;;;;;;;;;;;-144.99;100.00;67352.69;5095367;28;20478;-82
2024/01/22 03:49:48;;;;;;;;;;;;;;;-144.99;100.00;67352.69;5099917;28;19912;-82
2024/01/22 03:52:14;;;;;;;;;;;;;;;-144.99;100.00;67352.69;5084733;28;20365;-82
2024/01/22 03:54:39;;;;;;;;;;;;;;;-144.99;100.00;67352.69;5079536;28;20273;-82
2024/01/22 03:57:07;;;;;;;;;;;;;;;-144.99;100.00;67352.69;5089282;28;19912;-82
2024/01/22 03:59:35;;;;;;;;;;;;;;;-144.99;100.00;67352.69;5086597;28;19912;-82
2024/01/22 04:02:01;;;;;;;;;;;;;;;-144.99;100.00;67352.69;5089662;28;19974;-82
2024/01/22 04:04:26;;;;;;;;;;;;;;;-144.99;100.00;67352.69;5087318;28;19912;-82
2024/01/22 04:06:51;;;;;;;;;;;;;;;-144.99;100.00;67352.69;5084319;28;19912;-82
2024/01/22 04:09:16;;;;;;;;;;;;;;;-144.99;100.00;67352.69;5083562;28;20385;-82
2024/01/22 04:11:41;;;;;;;;;;;;;;;-144.99;100.00;67352.69;5084932;28;20397;-82
2024/01/22 04:14:07;;;;;;;;;;;;;;;-144.99;100.00;67352.69;5083570;28;19998;-82
2024/01/22 04:16:32;;;;;;;;;;;;;;;-144.99;100.00;67352.69;5075194;28;19919;-82
2024/01/22 04:18:57;;;;;;;;;;;;;;;-144.99;100.00;67352.69;5083921;28;20278;-82
2024/01/22 04:21:23;;;;;;;;;;;;;;;-144.99;100.00;67352.69;5092208;28;19919;-82
2024/01/22 04:23:48;;;;;;;;;;;;;;;-144.99;100.00;67352.69;5092366;28;20293;-82
2024/01/22 04:26:13;;;;;;;;;;;;;;;-144.99;100.00;67352.69;5081510;28;20011;-82
2024/01/22 04:28:38;;;;;;;;;;;;;;;-144.99;100.00;67352.69;5078177;28;20349;-82
2024/01/22 04:31:06;;;;;;;;;;;;;;;-144.99;100.00;67352.69;5087456;28;20333;-82
2024/01/22 04:33:31;;;;;;;;;;;;;;;-144.99;100.00;67352.69;5085784;28;19959;-82
2024/01/22 04:35:57;;;;;;;;;;;;;;;-144.99;100.00;67352.69;5079271;28;19912;-83
2024/01/22 04:38:22;;;;;;;;;;;;;;;-144.99;100.00;67352.69;5087356;28;19923;-82
2024/01/22 04:40:47;;;;;;;;;;;;;;;-144.99;100.00;67352.69;5086136;28;19947;-82
2024/01/22 04:43:13;;;;;;;;;;;;;;;-144.99;100.00;67352.69;5088365;28;19917;-82
2024/01/22 04:45:38;;;;;;;;;;;;;;;-144.99;100.00;67352.69;5076260;28;19923;-83
2024/01/22 04:48:04;;;;;;;;;;;;;;;-144.99;100.00;67352.69;5091223;28;20039;-83
2024/01/22 04:50:29;;;;;;;;;;;;;;;-144.99;100.00;67352.69;5083141;28;20041;-82
2024/01/22 04:52:54;;;;;;;;;;;;;;;-144.99;100.00;67352.69;5076167;28;19947;-83
2024/01/22 04:55:20;;;;;;;;;;;;;;;-144.99;100.00;67352.69;5083101;28;19913;-82
2024/01/22 04:57:45;;;;;;;;;;;;;;;-144.99;100.00;67352.69;5085217;28;19919;-82
2024/01/22 05:00:10;;;;;;;;;;;;;;;-144.99;100.00;67352.69;5086346;28;19919;-82
2024/01/22 05:02:37;;;;;;;;;;;;;;;-144.99;100.00;67352.69;5087276;28;19920;-82
2024/01/22 05:05:02;;;;;;;;;;;;;;;-144.99;100.00;67352.69;5086216;28;19912;-82
2024/01/22 05:07:28;;;;;;;;;;;;;;;-144.99;100.00;67352.69;5086376;28;19912;-82
2024/01/22 05:09:57;;;;;;;;;;;;;;;-144.99;100.00;67352.69;5082627;28;19999;-82
2024/01/22 05:12:23;;;;;;;;;;;;;;;-144.99;100.00;67352.69;5082795;28;20377;-82
2024/01/22 05:14:48;;;;;;;;;;;;;;;-144.99;100.00;67352.69;5083904;28;19977;-82
2024/01/22 05:17:13;;;;;;;;;;;;;;;-144.99;100.00;67352.69;5089163;28;19912;-82
2024/01/22 05:19:39;;;;;;;;;;;;;;;-144.99;100.00;67352.69;5084512;28;19999;-82
2024/01/22 05:22:04;;;;;;;;;;;;;;;-144.99;100.00;67352.69;5082494;28;19916;-83
2024/01/22 05:24:29;;;;;;;;;;;;;;;-144.99;100.00;67352.69;5074123;28;19920;-82
2024/01/22 05:26:54;;;;;;;;;;;;;;;-144.99;100.00;67352.69;5082424;28;19912;-83
2024/01/22 05:29:20;;;;;;;;;;;;;;;-144.99;100.00;67352.69;5075597;28;19913;-83
2024/01/22 05:31:45;;;;;;;;;;;;;;;-144.99;100.00;67352.69;5073867;28;19912;-82
2024/01/22 05:34:10;;;;;;;;;;;;;;;-144.99;100.00;67352.69;5079558;28;19915;-83
2024/01/22 05:36:37;;;;;;;;;;;;;;;-144.99;100.00;67352.69;5085971;28;19986;-82
2024/01/22 05:39:04;;;;;;;;;;;;;;;-144.99;100.00;67352.69;5080758;28;19992;-83
2024/01/22 05:41:30;;;;;;;;;;;;;;;-144.99;100.00;67352.69;5074102;28;19920;-82
2024/01/22 05:43:55;;;;;;;;;;;;;;;-144.99;100.00;67352.69;5089982;28;20293;-82
2024/01/22 05:46:20;;;;;;;;;;;;;;;-144.99;100.00;67352.69;5080984;28;19912;-82
2024/01/22 05:48:46;;;;;;;;;;;;;;;-144.99;100.00;67352.69;5082952;28;19919;-83
2024/01/22 05:51:11;;;;;;;;;;;;;;;-144.99;100.00;67352.69;5081842;28;19962;-82
2024/01/22 05:53:37;;;;;;;;;;;;;;;-144.99;100.00;67352.69;5074237;28;19919;-82
2024/01/22 05:56:03;;;;;;;;;;;;;;;-144.99;100.00;67352.69;5074356;28;19943;-83
2024/01/22 05:58:28;;;;;;;;;;;;;;;-144.99;100.00;67352.69;5081357;28;20005;-83
2024/01/22 06:00:53;;;;;;;;;;;;;;;-144.99;100.00;67352.69;5089147;28;19916;-82
2024/01/22 06:03:19;;;;;;;;;;;;;;;-144.99;100.00;67352.69;5080004;28;19963;-82
2024/01/22 06:05:45;;;;;;;;;;;;;;;-144.99;100.00;67352.69;5082071;28;19951;-82
2024/01/22 06:08:10;;;;;;;;;;;;;;;-144.99;100.00;67352.69;5080628;28;19912;-82
2024/01/22 06:10:35;;;;;;;;;;;;;;;-144.99;100.00;67352.69;5081735;28;19919;-82
2024/01/22 06:13:01;;;;;;;;;;;;;;;-144.99;100.00;67352.69;5073110;28;19962;-82
2024/01/22 06:15:26;;;;;;;;;;;;;;;-144.99;100.00;67352.69;5088452;28;19912;-82
2024/01/22 06:17:53;;;;;;;;;;;;;;;-144.99;100.00;67352.69;5081800;28;19916;-82
2024/01/22 06:20:18;;;;;;;;;;;;;;;-144.99;100.00;67352.69;5090308;28;19920;-83
2024/01/22 06:22:43;;;;;;;;;;;;;;;-144.99;100.00;67352.69;5074405;28;19916;-82
2024/01/22 06:25:09;;;;;;;;;;;;;;;-144.99;100.00;67352.69;5078621;28;19935;-83
2024/01/22 06:27:35;;;;;;;;;;;;;;;-144.99;100.00;67352.69;5084661;28;20297;-82
2024/01/22 06:30:01;;;;;;;;;;;;;;;-144.99;100.00;67352.69;5089976;28;19912;-82
2024/01/22 06:32:26;;;;;;;;;;;;;;;-144.99;100.00;67352.69;5082257;28;19920;-83
2024/01/22 06:34:52;;;;;;;;;;;;;;;-144.99;100.00;67352.69;5090589;28;19916;-83
2024/01/22 06:37:18;;;;;;;;;;;;;;;-144.99;100.00;67352.69;5082929;28;20008;-83
2024/01/22 06:39:43;;;;;;;;;;;;;;;-144.99;100.00;67352.69;5089340;28;20301;-83
2024/01/22 06:42:08;;;;;;;;;;;;;;;-144.99;100.00;67352.69;5072602;28;20358;-83
2024/01/22 06:44:33;;;;;;;;;;;;;;;-144.99;100.00;67352.69;5083225;28;19913;-83
2024/01/22 06:46:58;;;;;;;;;;;;;;;-144.99;100.00;67352.69;5080465;28;19931;-83
2024/01/22 06:49:24;;;;;;;;;;;;;;;-144.99;100.00;67352.69;5080953;28;19912;-83
2024/01/22 06:51:49;;;;;;;;;;;;;;;-144.99;100.00;67352.69;5085446;28;19912;-83
2024/01/22 06:54:15;;;;;;;;;;;;;;;-144.99;100.00;67352.69;5079053;28;19913;-82
2024/01/22 06:56:41;;;;;;;;;;;;;;;-144.99;100.00;67352.69;5084632;28;20357;-82
2024/01/22 06:59:06;;;;;;;;;;;;;;;-144.99;100.00;67352.69;5086185;28;19919;-82
2024/01/22 07:01:31;;;;;;;;;;;;;;;-144.99;100.00;67352.69;5092815;28;20389;-82
2024/01/22 07:03:58;;;;;;;;;;;;;;;-144.99;100.00;67352.69;5084864;28;20303;-82
2024/01/22 07:06:23;;;;;;;;;;;;;;;-144.99;100.00;67352.69;5085541;28;19952;-83
2024/01/22 07:08:48;;;;;;;;;;;;;;;-144.99;100.00;67352.69;5085816;28;20014;-82
2024/01/22 07:11:14;;;;;;;;;;;;;;;-144.99;100.00;67352.69;5080103;28;19962;-82
2024/01/22 07:13:39;;;;;;;;;;;;;;;-144.99;100.00;67352.69;5092890;28;19918;-83
2024/01/22 07:16:07;;;;;;;;;;;;;;;-144.99;100.00;67352.69;5084755;28;20380;-83
2024/01/22 07:18:33;;;;;;;;;;;;;;;-144.99;100.00;67352.69;5076467;28;19912;-82
2024/01/22 07:20:58;;;;;;;;;;;;;;;-144.99;100.00;67352.69;5094850;28;19965;-83
2024/01/22 07:23:24;;;;;;;;;;;;;;;-144.99;100.00;67352.69;5094976;28;19916;-84
2024/01/22 07:25:49;;;;;;;;;;;;;;;-144.99;100.00;67352.69;5085073;28;20293;-84
2024/01/22 07:28:14;;;;;;;;;;;;;;;-144.99;100.00;67352.69;5079858;28;19920;-83
2024/01/22 07:30:39;;;;;;;;;;;;;;;-144.99;100.00;67352.69;5082012;28;19912;-84
2024/01/22 07:33:05;;;;;;;;;;;;;;;-144.99;100.00;67352.69;5087438;28;19966;-83
2024/01/22 07:35:30;;;;;;;;;;;;;;;-144.99;100.00;67352.69;5085684;28;20293;-84
2024/01/22 07:37:55;;;;;;;;;;;;;;;-144.99;100.00;67352.69;5079440;28;19918;-84
2024/01/22 07:40:21;;;;;;;;;;;;;;;-144.99;100.00;67352.69;5086267;28;19916;-84
2024/01/22 07:42:47;;;;;;;;;;;;;;;-144.99;100.00;67352.69;5085359;28;20385;-84
2024/01/22 07:45:12;;;;;;;;;;;;;;;-144.99;100.00;67352.69;5089359;28;19923;-83
2024/01/22 07:47:38;;;;;;;;;;;;;;;-144.99;100.00;67352.69;5075564;28;19912;-84
2024/01/22 07:50:10;;;;;;;;;;;;;;;-144.99;100.00;67352.69;5082446;28;19916;-84
2024/01/22 07:52:35;;;;;;;;;;;;;;;-144.99;100.00;67352.69;5092087;28;19920;-84
2024/01/22 07:55:01;;;;;;;;;;;;;;;-144.99;100.00;67352.69;5093557;28;19920;-84
2024/01/22 07:57:27;;;;;;;;;;;;;;;-144.99;100.00;67352.69;5085900;28;20331;-83
2024/01/22 07:59:52;;;;;;;;;;;;;;;-144.99;100.00;67352.69;5083312;28;19912;-84
2024/01/22 08:02:17;;;;;;;;;;;;;;;-144.99;100.00;67352.69;5082493;28;19927;-84
2024/01/22 08:04:42;;;;;;;;;;;;;;;-144.99;100.00;67352.69;5095081;28;19916;-84
2024/01/22 08:07:08;;;;;;;;;;;;;;;-144.99;100.00;67352.69;5099430;28;20361;-84
2024/01/22 08:09:33;;;;;;;;;;;;;;;-144.99;100.00;67352.69;5088434;28;20373;-84
2024/01/22 08:11:59;;;;;;;;;;;;;;;-144.99;100.00;67352.69;5090061;28;19912;-84
2024/01/22 08:14:24;;;;;;;;;;;;;;;-144.99;100.00;67352.69;5086693;28;19960;-84
2024/01/22 08:16:49;;;;;;;;;;;;;;;-144.99;100.00;67352.69;5088257;28;19912;-84
2024/01/22 08:19:15;;;;;;;;;;;;;;;-144.99;100.00;67352.69;5078530;28;19928;-84
2024/01/22 08:21:40;;;;;;;;;;;;;;;-144.99;100.00;67352.69;5093285;28;19977;-84
2024/01/22 08:24:05;;;;;;;;;;;;;;;-144.99;100.00;67352.69;5076900;28;19912;-83
2024/01/22 08:26:30;;;;;;;;;;;;;;;-144.99;100.00;67352.69;5093896;28;20338;-84
2024/01/22 08:28:56;;;;;;;;;;;;;;;-144.99;100.00;67352.69;5082894;28;20065;-84
2024/01/22 08:31:21;;;;;;;;;;;;;;;-144.99;100.00;67352.69;5090085;28;19919;-84
2024/01/22 08:33:48;;;;;;;;;;;;;;;-144.99;100.00;67352.69;5079132;28;20385;-84
2024/01/22 08:36:13;;;;;;;;;;;;;;;-144.99;100.00;67352.69;5090444;28;19965;-84
2024/01/22 08:38:38;;;;;;;;;;;;;;;-144.99;100.00;67352.69;5090553;28;19969;-84
2024/01/22 08:41:04;;;;;;;;;;;;;;;-144.99;100.00;67352.69;5094725;28;19974;-83
2024/01/22 08:43:29;;;;;;;;;;;;;;;-144.99;100.00;67352.69;5095262;28;19931;-85
2024/01/22 08:45:54;;;;;;;;;;;;;;;-144.99;100.00;67352.69;5090121;28;19960;-84
2024/01/22 08:48:19;;;;;;;;;;;;;;;-144.99;100.00;67352.69;5088603;28;19966;-84
2024/01/22 08:50:45;;;;;;;;;;;;;;;-144.99;100.00;67352.69;5087896;28;19991;-85
2024/01/22 08:53:11;;;;;;;;;;;;;;;-144.99;100.00;67352.69;5084335;28;20285;-84
2024/01/22 08:55:36;;;;;;;;;;;;;;;-144.99;100.00;67352.69;5081419;28;19921;-84
2024/01/22 08:58:01;;;;;;;;;;;;;;;-144.99;100.00;67352.69;5099790;28;19919;-84
2024/01/22 09:00:27;;;;;;;;;;;;;;;-144.99;100.00;67352.69;5099833;28;19918;-84
2024/01/22 09:02:52;;;;;;;;;;;;;;;-144.99;100.00;67352.69;5086697;28;19962;-84
2024/01/22 09:05:17;;;;;;;;;;;;;;;-144.99;100.00;67352.69;5084160;28;19912;-84
2024/01/22 09:07:43;;;;;;;;;;;;;;;-144.99;100.00;67352.69;5095511;28;19955;-84
2024/01/22 09:10:08;;;;;;;;;;;;;;;-144.99;100.00;67352.69;5085602;28;19919;-84
2024/01/22 09:12:34;;;;;;;;;;;;;;;-144.99;100.00;67352.69;5094409;28;19912;-84
2024/01/22 09:15:00;;;;;;;;;;;;;;;-144.99;100.00;67352.69;5096759;28;20384;-84
2024/01/22 09:17:25;;;;;;;;;;;;;;;-144.99;100.00;67352.69;5088033;28;19934;-84
2024/01/22 09:19:51;;;;;;;;;;;;;;;-144.99;100.00;67352.69;5085320;28;19912;-84
2024/01/22 09:22:16;;;;;;;;;;;;;;;-144.99;100.00;67352.69;5076616;28;19978;-84
2024/01/22 09:24:41;;;;;;;;;;;;;;;-144.99;100.00;67352.69;5093852;28;19912;-83
2024/01/22 09:27:07;;;;;;;;;;;;;;;-144.99;100.00;67352.69;5081608;28;19912;-84
2024/01/22 09:29:32;;;;;;;;;;;;;;;-144.99;100.00;67352.69;5079135;28;19919;-84
2024/01/22 09:31:57;;;;;;;;;;;;;;;-144.99;100.00;67352.69;5087056;28;19912;-84
2024/01/22 09:34:22;;;;;;;;;;;;;;;-144.99;100.00;67352.69;5087356;28;19916;-84
2024/01/22 09:36:47;;;;;;;;;;;;;;;-144.99;100.00;67352.69;5082575;28;20301;-84
2024/01/22 09:39:13;;;;;;;;;;;;;;;-144.99;100.00;67352.69;5079841;28;20396;-84
2024/01/22 09:41:39;;;;;;;;;;;;;;;-144.99;100.00;67352.69;5084724;28;19965;-85
2024/01/22 09:44:05;;;;;;;;;;;;;;;-144.99;100.00;67352.69;5085992;28;20301;-85
2024/01/22 09:46:30;;;;;;;;;;;;;;;-144.99;100.00;67352.69;5086878;28;19912;-85
2024/01/22 09:48:56;;;;;;;;;;;;;;;-144.99;100.00;67352.69;5096144;28;19912;-85
2024/01/22 09:51:21;;;;;;;;;;;;;;;-144.99;100.00;67352.69;5089082;28;19943;-84
2024/01/22 09:53:47;;;;;;;;;;;;;;;-144.99;100.00;67352.69;5090735;28;20002;-86
2024/01/22 09:56:16;;;;;;;;;;;;;;;-144.99;100.00;67352.69;5091559;28;19951;-85
2024/01/22 09:58:43;;;;;;;;;;;;;;;-144.99;100.00;67352.69;5087818;28;19977;-85
2024/01/22 10:01:10;;;;;;;;;;;;;;;-144.99;100.00;67352.69;5083526;28;19917;-83
2024/01/22 10:03:36;;;;;;;;;;;;;;;-144.99;100.00;67352.69;5086132;28;19928;-84
2024/01/22 10:06:01;;;;;;;;;;;;;;;-144.99;100.00;67352.69;5087784;28;19912;-84
2024/01/22 10:08:26;;;;;;;;;;;;;;;-144.99;100.00;67352.69;5085333;28;19965;-84
2024/01/22 10:10:51;;;;;;;;;;;;;;;-144.99;100.00;67352.69;5087461;28;19916;-85
2024/01/22 10:13:17;;;;;;;;;;;;;;;-144.99;100.00;67352.69;5096070;28;19912;-85
2024/01/22 10:15:43;;;;;;;;;;;;;;;-144.99;100.00;67352.69;5086200;28;20361;-84
2024/01/22 10:18:12;;;;;;;;;;;;;;;-144.99;100.00;67352.69;5084996;28;19919;-84
2024/01/22 10:20:38;;;;;;;;;;;;;;;-144.99;100.00;67352.69;5085783;28;20053;-85
2024/01/22 10:23:04;;;;;;;;;;;;;;;-144.99;100.00;67352.69;5082275;28;19978;-85
2024/01/22 10:25:29;;;;;;;;;;;;;;;-144.99;100.00;67352.69;5075589;28;20297;-84
2024/01/22 10:28:17;;;;;;;;;;;;;;;-144.99;100.00;67352.69;5078975;28;19912;-84
2024/01/22 10:30:44;;;;;;;;;;;;;;;-144.99;100.00;67352.69;5085252;28;19912;-84
2024/01/22 10:33:13;;;;;;;;;;;;;;;-144.99;100.00;67352.69;5074050;28;20308;-86
2024/01/22 10:35:39;;;;;;;;;;;;;;;-144.99;100.00;67352.69;5082125;28;20621;-84
2024/01/22 10:38:09;;;;;;;;;;;;;;;-144.99;100.00;67352.69;5080299;28;19916;-85
2024/01/22 10:40:34;;;;;;;;;;;;;;;-144.99;100.00;67352.69;5085931;28;19916;-85
2024/01/22 10:43:16;;;;;;;;;;;;;;;-144.99;100.00;67352.69;5078324;28;19985;-85
2024/01/22 10:45:42;;;;;;;;;;;;;;;-144.99;100.00;67352.69;5077822;28;19912;-85
2024/01/22 10:48:08;;;;;;;;;;;;;;;-144.99;100.00;67352.69;5081341;28;19920;-85
2024/01/22 10:50:34;;;;;;;;;;;;;;;-144.99;100.00;67352.69;5081504;28;19916;-86
2024/01/22 10:52:59;;;;;;;;;;;;;;;-144.99;100.00;67352.69;5084312;28;20288;-86
2024/01/22 10:55:24;;;;;;;;;;;;;;;-144.99;100.00;67352.69;5073527;28;19954;-85
2024/01/22 10:57:51;;;;;;;;;;;;;;;-144.99;100.00;67352.69;5074014;28;19916;-86
2024/01/22 11:00:16;;;;;;;;;;;;;;;-144.99;100.00;67352.69;5078479;28;19947;-85
2024/01/22 11:02:43;;;;;;;;;;;;;;;-144.99;100.00;67352.69;5081701;28;20391;-87
2024/01/22 11:05:13;;;;;;;;;;;;;;;-144.99;100.00;67352.69;5080494;28;19913;-86
2024/01/22 11:07:39;;;;;;;;;;;;;;;-144.99;100.00;67352.69;5081665;28;19918;-85
2024/01/22 11:10:05;;;;;;;;;;;;;;;-144.99;100.00;67352.69;5079548;28;20385;-87
2024/01/22 11:12:33;;;;;;;;;;;;;;;-144.99;100.00;67352.69;5081853;28;19920;-86
2024/01/22 11:14:59;;;;;;;;;;;;;;;-144.99;100.00;67352.69;5084550;28;19912;-86
2024/01/22 11:17:25;;;;;;;;;;;;;;;-144.99;100.00;67352.69;5083848;28;19912;-84
2024/01/22 11:19:50;;;;;;;;;;;;;;;-144.99;100.00;67352.69;5080197;28;19913;-85
2024/01/22 11:22:21;;;;;;;;;;;;;;;-144.99;100.00;67352.69;5079256;28;19916;-84
2024/01/22 11:25:02;;;;;;;;;;;;;;;-144.99;100.00;67352.69;5072714;28;20388;-86
2024/01/22 11:27:37;;;;;;;;;;;;;;;-144.99;100.00;67352.69;5076290;28;20335;-85
2024/01/22 11:30:21;;;;;;;;;;;;;;;-144.99;100.00;67352.69;5071011;28;19961;-85
2024/01/22 11:32:47;;;;;;;;;;;;;;;-144.99;100.00;67352.69;5076434;28;19916;-85
2024/01/22 11:35:12;;;;;;;;;;;;;;;-144.99;100.00;67352.69;5078302;28;20343;-86
2024/01/22 11:37:38;;;;;;;;;;;;;;;-144.99;100.00;67352.69;5083405;28;19912;-85
2024/01/22 11:40:07;;;;;;;;;;;;;;;-144.99;100.00;67352.69;5089424;28;19916;-86
2024/01/22 11:42:32;;;;;;;;;;;;;;;-144.99;100.00;67352.69;5092192;28;19917;-86
2024/01/22 11:45:07;;;;;;;;;;;;;;;-144.99;100.00;67352.69;5083973;28;19957;-85
2024/01/22 11:47:32;;;;;;;;;;;;;;;-144.99;100.00;67352.69;5084850;28;19916;-85
2024/01/22 11:50:04;;;;;;;;;;;;;;;-144.99;100.00;67352.69;5096972;28;19920;-86
2024/01/22 11:52:29;;;;;;;;;;;;;;;-144.99;100.00;67352.69;5087443;28;20392;-86
2024/01/22 11:55:00;;;;;;;;;;;;;;;-144.99;100.00;67352.69;5083024;28;19939;-85
2024/01/22 11:57:26;;;;;;;;;;;;;;;-144.99;100.00;67352.69;5083371;28;19966;-85
2024/01/22 11:59:58;;;;;;;;;;;;;;;-144.99;100.00;67352.69;5087917;28;19912;-86
2024/01/22 12:02:23;;;;;;;;;;;;;;;-144.99;100.00;67352.69;5094957;28;20369;-86
2024/01/22 12:04:48;;;;;;;;;;;;;;;-144.99;100.00;67352.69;5096119;28;19969;-86
2024/01/22 12:07:13;;;;;;;;;;;;;;;-144.99;100.00;67352.69;5086234;28;19962;-85
2024/01/22 12:09:38;;;;;;;;;;;;;;;-144.99;100.00;67352.69;5086505;28;19912;-86
2024/01/22 12:12:04;;;;;;;;;;;;;;;-144.99;100.00;67352.69;5081619;28;19913;-86